createdAt,value
2023-03-24T00:01:24.544Z,14.30
2023-03-24T00:03:52.681Z,14.00
2023-03-24T00:06:22.913Z,13.90
2023-03-24T00:08:51.147Z,14.00
2023-03-24T00:11:21.432Z,14.00
2023-03-24T00:13:50.606Z,13.70
2023-03-24T00:16:20.045Z,13.50
2023-03-24T00:18:53.858Z,13.70
2023-03-24T00:21:25.088Z,13.60
2023-03-24T00:23:55.642Z,13.70
2023-03-24T00:26:25.767Z,13.80
2023-03-24T00:28:55.804Z,13.70
2023-03-24T00:31:24.886Z,13.60
2023-03-24T00:33:54.009Z,13.70
2023-03-24T00:36:24.791Z,13.70
2023-03-24T00:38:53.849Z,13.70
2023-03-24T00:41:22.432Z,13.70
2023-03-24T00:43:51.040Z,13.60
2023-03-24T00:46:28.216Z,13.60
2023-03-24T00:49:05.911Z,13.60
2023-03-24T00:51:42.464Z,13.70
2023-03-24T00:54:12.830Z,13.70
2023-03-24T00:56:41.625Z,13.70
2023-03-24T00:59:10.979Z,13.60
2023-03-24T01:01:39.766Z,13.60
2023-03-24T01:04:10.670Z,13.60
2023-03-24T01:06:39.559Z,13.50
2023-03-24T01:09:08.036Z,13.50
2023-03-24T01:11:38.951Z,13.40
2023-03-24T01:14:07.936Z,13.20
2023-03-24T01:16:36.228Z,13.10
2023-03-24T01:19:04.874Z,13.00
2023-03-24T01:21:35.370Z,13.10
2023-03-24T01:24:05.295Z,13.00
2023-03-24T01:26:33.172Z,13.10
2023-03-24T01:29:00.994Z,13.10
2023-03-24T01:31:28.820Z,13.20
2023-03-24T01:33:56.760Z,13.10
2023-03-24T01:36:24.629Z,13.10
2023-03-24T01:38:53.038Z,13.10
2023-03-24T01:41:20.979Z,13.00
2023-03-24T01:43:48.804Z,13.10
2023-03-24T01:46:21.988Z,13.10
2023-03-24T01:49:01.704Z,13.00
2023-03-24T01:51:42.199Z,13.10
2023-03-24T01:54:24.983Z,13.00
2023-03-24T01:57:02.700Z,13.00
2023-03-24T01:59:36.101Z,13.00
2023-03-24T02:02:13.930Z,13.00
2023-03-24T02:04:54.943Z,13.00
2023-03-24T02:07:54.036Z,13.00
2023-03-24T02:10:23.900Z,12.90
2023-03-24T02:12:52.022Z,12.60
2023-03-24T02:15:20.665Z,12.30
2023-03-24T02:18:00.626Z,12.00
2023-03-24T02:20:50.170Z,12.00
2023-03-24T02:23:41.480Z,12.10
2023-03-24T02:26:30.339Z,12.30
2023-03-24T02:29:56.933Z,12.40
2023-03-24T02:32:24.840Z,12.30
2023-03-24T02:35:17.437Z,12.30
2023-03-24T02:37:58.409Z,12.30
2023-03-24T02:40:47.370Z,12.20
2023-03-24T02:43:41.795Z,12.00
2023-03-24T02:46:18.508Z,12.10
2023-03-24T02:48:58.570Z,12.10
2023-03-24T02:51:42.784Z,12.00
2023-03-24T02:54:35.067Z,12.30
2023-03-24T02:57:30.288Z,12.20
2023-03-24T03:00:32.500Z,12.10
2023-03-24T03:03:39.847Z,12.40
2023-03-24T03:06:22.295Z,12.30
2023-03-24T03:08:51.562Z,12.20
2023-03-24T03:11:19.591Z,11.90
2023-03-24T03:14:08.810Z,12.00
2023-03-24T03:17:00.229Z,12.00
2023-03-24T03:19:35.952Z,11.80
2023-03-24T03:22:07.643Z,11.80
2023-03-24T03:24:42.562Z,11.80
2023-03-24T03:27:29.513Z,11.70
2023-03-24T03:30:23.584Z,11.60
2023-03-24T03:33:04.181Z,11.60
2023-03-24T03:35:39.337Z,11.70
2023-03-24T03:38:28.941Z,11.80
2023-03-24T03:41:00.818Z,11.90
2023-03-24T03:43:34.702Z,11.90
2023-03-24T03:46:06.632Z,11.80
2023-03-24T03:48:39.405Z,11.90
2023-03-24T03:51:13.979Z,12.00
2023-03-24T03:54:01.356Z,12.00
2023-03-24T03:56:34.647Z,12.20
2023-03-24T03:59:31.142Z,12.20
2023-03-24T04:02:16.796Z,12.30
2023-03-24T04:05:20.192Z,12.20
2023-03-24T04:08:12.530Z,12.20
2023-03-24T04:11:17.981Z,12.00
2023-03-24T04:14:34.804Z,11.80
2023-03-24T04:17:50.148Z,11.50
2023-03-24T04:20:47.776Z,11.30
2023-03-24T04:23:44.727Z,11.40
2023-03-24T04:26:28.799Z,11.40
2023-03-24T04:29:26.118Z,11.40
2023-03-24T04:32:03.018Z,11.50
2023-03-24T04:34:42.402Z,11.50
2023-03-24T04:37:38.176Z,11.60
2023-03-24T04:40:18.158Z,11.60
2023-03-24T04:42:55.852Z,11.60
2023-03-24T04:45:29.027Z,11.50
2023-03-24T04:48:19.239Z,11.40
2023-03-24T04:51:11.164Z,11.30
2023-03-24T04:53:51.112Z,11.50
2023-03-24T04:56:43.032Z,11.40
2023-03-24T04:59:17.810Z,11.40
2023-03-24T05:01:52.418Z,11.40
2023-03-24T05:04:30.742Z,11.50
2023-03-24T05:07:08.795Z,11.60
2023-03-24T05:09:36.711Z,11.70
2023-03-24T05:12:04.820Z,11.60
2023-03-24T05:14:43.449Z,11.30
2023-03-24T05:17:11.250Z,11.20
2023-03-24T05:19:39.957Z,11.10
2023-03-24T05:22:07.947Z,11.10
2023-03-24T05:24:36.115Z,11.10
2023-03-24T05:27:03.923Z,11.20
2023-03-24T05:29:31.705Z,11.20
2023-03-24T05:31:59.863Z,11.20
2023-03-24T05:34:27.625Z,11.20
2023-03-24T05:37:14.428Z,11.30
2023-03-24T05:39:42.200Z,11.40
2023-03-24T05:42:23.544Z,11.60
2023-03-24T05:44:51.608Z,11.80
2023-03-24T05:50:08.706Z,11.70
2023-03-24T05:52:36.697Z,11.70
2023-03-24T05:55:31.124Z,11.80
2023-03-24T05:58:07.271Z,11.80
2023-03-24T06:00:45.136Z,11.80
2023-03-24T06:03:19.580Z,11.90
2023-03-24T06:05:58.591Z,11.90
2023-03-24T06:08:28.765Z,12.00
2023-03-24T06:11:02.485Z,12.10
2023-03-24T06:13:32.796Z,12.20
2023-03-24T06:16:03.542Z,12.30
2023-03-24T06:18:40.628Z,12.40
2023-03-24T06:21:18.780Z,12.50
2023-03-24T06:23:47.596Z,12.50
2023-03-24T06:26:20.061Z,12.50
2023-03-24T06:28:52.816Z,12.60
2023-03-24T06:31:22.602Z,12.80
2023-03-24T06:33:53.037Z,12.90
2023-03-24T06:36:21.210Z,12.90
2023-03-24T06:38:50.443Z,13.00
2023-03-24T06:41:20.844Z,13.10
2023-03-24T06:43:52.655Z,13.00
2023-03-24T06:46:20.690Z,13.10
2023-03-24T06:48:49.343Z,13.10
2023-03-24T06:51:17.810Z,13.10
2023-03-24T06:53:46.982Z,13.20
2023-03-24T06:56:17.743Z,13.40
2023-03-24T06:58:50.500Z,13.40
2023-03-24T07:01:27.554Z,13.40
2023-03-24T07:04:15.736Z,13.50
2023-03-24T07:07:05.623Z,13.60
2023-03-24T07:09:41.148Z,13.60
2023-03-24T07:12:09.068Z,13.80
2023-03-24T07:14:38.360Z,14.00
2023-03-24T07:17:07.592Z,14.20
2023-03-24T07:19:45.883Z,14.20
2023-03-24T07:22:37.283Z,14.30
2023-03-24T07:25:43.274Z,14.50
2023-03-24T07:28:19.505Z,14.60
2023-03-24T07:30:47.879Z,14.60
2023-03-24T07:33:15.773Z,14.70
2023-03-24T07:35:46.334Z,14.70
2023-03-24T07:38:14.248Z,14.60
2023-03-24T07:40:42.251Z,14.70
2023-03-24T07:43:10.169Z,14.80
2023-03-24T07:45:58.737Z,14.80
2023-03-24T07:48:30.146Z,15.00
2023-03-24T07:50:58.294Z,15.00
2023-03-24T07:53:49.474Z,15.00
2023-03-24T07:56:27.751Z,14.90
2023-03-24T07:58:58.809Z,14.90
2023-03-24T08:01:56.934Z,14.90
2023-03-24T08:04:47.204Z,15.20
2023-03-24T08:07:53.629Z,15.00
2023-03-24T08:10:27.715Z,15.10
2023-03-24T08:12:56.619Z,15.20
2023-03-24T08:15:25.242Z,15.20
2023-03-24T08:17:53.459Z,15.20
2023-03-24T08:20:21.930Z,15.30
2023-03-24T08:22:50.310Z,15.40
2023-03-24T08:25:20.623Z,15.40
2023-03-24T08:27:49.456Z,15.40
2023-03-24T08:30:23.510Z,15.50
2023-03-24T08:32:55.143Z,15.60
2023-03-24T08:35:27.361Z,15.70
2023-03-24T08:37:55.650Z,15.90
2023-03-24T08:40:24.938Z,15.90
2023-03-24T08:42:58.704Z,16.00
2023-03-24T08:45:30.685Z,15.90
2023-03-24T08:48:01.558Z,15.90
2023-03-24T08:50:34.706Z,16.00
2023-03-24T08:53:04.303Z,16.10
2023-03-24T08:55:32.510Z,16.30
2023-03-24T08:58:01.206Z,16.10
2023-03-24T09:00:29.456Z,16.00
2023-03-24T09:02:58.617Z,16.10
2023-03-24T09:05:43.256Z,15.90
2023-03-24T09:08:13.979Z,15.70
2023-03-24T09:10:43.374Z,15.70
2023-03-24T09:13:11.124Z,15.80
2023-03-24T09:15:39.025Z,16.20
2023-03-24T09:18:06.896Z,16.30
2023-03-24T09:20:34.600Z,16.30
2023-03-24T09:23:02.290Z,16.30
2023-03-24T09:25:30.069Z,16.70
2023-03-24T09:27:57.740Z,16.90
2023-03-24T09:30:25.471Z,16.90
2023-03-24T09:32:53.355Z,17.00
2023-03-24T09:35:21.095Z,17.00
2023-03-24T09:37:48.918Z,16.90
2023-03-24T09:40:27.884Z,16.90
2023-03-24T09:43:07.069Z,16.90
2023-03-24T09:45:37.995Z,17.00
2023-03-24T09:48:18.780Z,17.20
2023-03-24T09:50:55.108Z,17.30
2023-03-24T09:54:01.110Z,17.20
2023-03-24T09:56:32.621Z,17.10
2023-03-24T09:59:05.604Z,17.10
2023-03-24T10:01:36.324Z,17.30
2023-03-24T10:04:05.516Z,17.20
2023-03-24T10:06:42.193Z,17.20
2023-03-24T10:09:34.272Z,17.10
2023-03-24T10:12:35.808Z,17.30
2023-03-24T10:15:37.587Z,17.30
2023-03-24T10:18:45.499Z,17.40
2023-03-24T10:21:27.950Z,17.50
2023-03-24T10:24:19.515Z,17.80
2023-03-24T10:27:01.487Z,18.00
2023-03-24T10:29:33.035Z,18.20
2023-03-24T10:32:02.768Z,18.40
2023-03-24T10:34:33.203Z,18.20
2023-03-24T10:37:03.409Z,18.30
2023-03-24T10:39:42.063Z,18.40
2023-03-24T10:42:22.251Z,18.40
2023-03-24T10:44:51.845Z,18.50
2023-03-24T10:47:25.468Z,18.50
2023-03-24T10:50:14.445Z,18.50
2023-03-24T10:52:47.467Z,18.60
2023-03-24T10:55:20.311Z,18.60
2023-03-24T10:57:51.189Z,18.60
2023-03-24T11:00:29.944Z,18.80
2023-03-24T11:03:02.257Z,18.90
2023-03-24T11:05:38.611Z,19.00
2023-03-24T11:08:45.260Z,19.00
2023-03-24T11:11:29.869Z,19.00
2023-03-24T11:14:01.727Z,19.00
2023-03-24T11:16:38.011Z,19.10
2023-03-24T11:19:18.799Z,19.20
2023-03-24T11:21:49.629Z,19.30
2023-03-24T11:24:20.424Z,19.30
2023-03-24T11:27:03.885Z,19.50
2023-03-24T11:29:34.446Z,19.50
2023-03-24T11:32:03.936Z,19.60
2023-03-24T11:34:39.001Z,19.60
2023-03-24T11:37:14.482Z,19.80
2023-03-24T11:39:42.420Z,19.60
2023-03-24T11:42:18.431Z,19.60
2023-03-24T11:44:51.884Z,19.90
2023-03-24T11:47:25.005Z,20.10
2023-03-24T11:49:59.144Z,20.00
2023-03-24T11:52:34.878Z,20.20
2023-03-24T11:55:13.213Z,20.50
2023-03-24T11:58:17.222Z,20.30
2023-03-24T12:00:54.592Z,20.30
2023-03-24T12:03:51.047Z,20.70
2023-03-24T12:06:28.408Z,20.60
2023-03-24T12:08:56.282Z,20.30
2023-03-24T12:11:45.102Z,20.70
2023-03-24T12:14:18.173Z,20.60
2023-03-24T12:17:03.739Z,20.60
2023-03-24T12:19:34.872Z,20.80
2023-03-24T12:22:21.808Z,20.90
2023-03-24T12:25:18.303Z,20.90
2023-03-24T12:28:06.444Z,20.80
2023-03-24T12:30:55.395Z,21.20
2023-03-24T12:33:41.936Z,21.20
2023-03-24T12:36:37.317Z,21.50
2023-03-24T12:39:29.358Z,21.00
2023-03-24T12:42:32.264Z,21.10
2023-03-24T12:45:11.927Z,21.40
2023-03-24T12:47:59.147Z,21.40
2023-03-24T12:51:08.503Z,21.60
2023-03-24T12:54:12.328Z,21.50
2023-03-24T12:56:53.441Z,21.40
2023-03-24T12:59:47.339Z,21.30
2023-03-24T13:02:51.209Z,21.20
2023-03-24T13:05:24.040Z,21.30
2023-03-24T13:07:58.493Z,21.70
2023-03-24T13:10:29.888Z,21.60
2023-03-24T13:13:13.571Z,21.50
2023-03-24T13:15:53.822Z,21.70
2023-03-24T13:18:31.395Z,21.40
2023-03-24T13:21:30.032Z,21.30
2023-03-24T13:24:11.114Z,21.50
2023-03-24T13:27:17.005Z,21.90
2023-03-24T13:30:07.441Z,22.40
2023-03-24T13:32:51.807Z,21.90
2023-03-24T13:35:40.093Z,21.90
2023-03-24T13:38:53.550Z,22.30
2023-03-24T13:41:24.839Z,22.30
2023-03-24T13:44:01.386Z,21.90
2023-03-24T13:46:30.011Z,21.90
2023-03-24T13:49:02.866Z,21.60
2023-03-24T13:51:33.775Z,21.80
2023-03-24T13:54:13.222Z,21.80
2023-03-24T13:57:03.521Z,21.60
2023-03-24T13:59:31.650Z,21.70
2023-03-24T14:02:18.303Z,21.90
2023-03-24T14:04:55.452Z,21.60
2023-03-24T14:07:44.187Z,21.60
2023-03-24T14:10:15.328Z,22.10
2023-03-24T14:13:02.212Z,22.10
2023-03-24T14:15:46.604Z,22.10
2023-03-24T14:18:23.762Z,22.00
2023-03-24T14:20:57.800Z,21.70
2023-03-24T14:23:48.815Z,21.60
2023-03-24T14:26:34.349Z,21.20
2023-03-24T14:29:02.823Z,21.40
2023-03-24T14:31:33.312Z,21.50
2023-03-24T14:34:15.147Z,21.70
2023-03-24T14:36:45.305Z,21.60
2023-03-24T14:39:28.142Z,21.30
2023-03-24T14:41:57.947Z,21.50
2023-03-24T14:44:45.206Z,21.40
2023-03-24T14:47:24.198Z,21.20
2023-03-24T14:49:54.029Z,21.10
2023-03-24T14:52:43.251Z,21.20
2023-03-24T14:55:16.756Z,21.20
2023-03-24T14:57:51.844Z,21.10
2023-03-24T15:00:35.015Z,20.90
2023-03-24T15:03:23.709Z,20.80
2023-03-24T15:05:51.552Z,20.80
2023-03-24T15:08:22.554Z,20.90
2023-03-24T15:11:01.442Z,20.90
2023-03-24T15:14:01.526Z,20.80
2023-03-24T15:16:31.567Z,20.70
2023-03-24T15:19:10.390Z,20.70
2023-03-24T15:21:41.251Z,20.70
2023-03-24T15:24:38.564Z,20.60
2023-03-24T15:27:09.120Z,20.40
2023-03-24T15:29:39.140Z,20.30
2023-03-24T15:32:07.814Z,20.40
2023-03-24T15:34:40.315Z,20.20
2023-03-24T15:37:41.798Z,20.30
2023-03-24T15:40:28.087Z,20.20
2023-03-24T15:42:58.317Z,20.20
2023-03-24T15:45:57.848Z,20.20
2023-03-24T15:48:35.349Z,20.20
2023-03-24T15:51:02.897Z,20.20
2023-03-24T15:53:44.631Z,20.20
2023-03-24T15:56:12.454Z,20.30
2023-03-24T15:58:48.746Z,20.20
2023-03-24T16:01:21.181Z,20.20
2023-03-24T16:03:49.220Z,20.10
2023-03-24T16:06:30.160Z,20.10
2023-03-24T16:09:27.965Z,20.10
2023-03-24T16:11:56.193Z,20.10
2023-03-24T16:14:26.633Z,20.00
2023-03-24T16:16:57.047Z,20.00
2023-03-24T16:19:25.351Z,20.00
2023-03-24T16:21:54.913Z,19.90
2023-03-24T16:24:23.243Z,19.90
2023-03-24T16:26:51.200Z,20.00
2023-03-24T16:29:21.968Z,20.00
2023-03-24T16:31:52.990Z,19.90
2023-03-24T16:34:22.357Z,19.80
2023-03-24T16:36:52.610Z,19.80
2023-03-24T16:39:25.904Z,19.80
2023-03-24T16:41:54.130Z,19.90
2023-03-24T16:44:22.074Z,19.80
2023-03-24T16:46:54.007Z,19.60
2023-03-24T16:49:23.859Z,19.60
2023-03-24T16:51:53.301Z,19.60
2023-03-24T16:54:21.190Z,19.60
2023-03-24T16:56:49.256Z,19.60
2023-03-24T16:59:17.281Z,19.60
2023-03-24T17:01:46.453Z,19.60
2023-03-24T17:04:14.249Z,19.60
2023-03-24T17:06:44.472Z,19.60
2023-03-24T17:09:12.769Z,19.60
2023-03-24T17:11:44.343Z,19.80
2023-03-24T17:14:14.927Z,19.90
2023-03-24T17:16:45.632Z,19.90
2023-03-24T17:19:19.266Z,19.80
2023-03-24T17:22:02.954Z,19.60
2023-03-24T17:24:38.249Z,19.60
2023-03-24T17:27:21.441Z,19.50
2023-03-24T17:29:49.300Z,19.40
2023-03-24T17:32:17.224Z,19.30
2023-03-24T17:34:48.038Z,19.30
2023-03-24T17:37:16.054Z,19.50
2023-03-24T17:39:44.270Z,19.60
2023-03-24T17:42:12.032Z,19.40
2023-03-24T17:44:39.894Z,19.40
2023-03-24T17:47:07.776Z,19.20
2023-03-24T17:49:35.673Z,19.10
2023-03-24T17:52:03.572Z,19.00
2023-03-24T17:54:31.340Z,19.10
2023-03-24T17:56:59.130Z,19.10
2023-03-24T17:59:27.154Z,19.20
2023-03-24T18:01:54.947Z,19.30
2023-03-24T18:04:23.981Z,19.40
2023-03-24T18:06:51.747Z,19.20
2023-03-24T18:09:19.469Z,19.20
2023-03-24T18:11:47.884Z,19.10
2023-03-24T18:14:15.790Z,19.10
2023-03-24T18:16:43.646Z,18.90
2023-03-24T18:19:11.521Z,18.80
2023-03-24T18:21:40.288Z,18.80
2023-03-24T18:24:09.009Z,19.00
2023-03-24T18:26:37.115Z,19.10
2023-03-24T18:29:05.975Z,19.10
2023-03-24T18:31:33.826Z,18.90
2023-03-24T18:34:01.864Z,18.70
2023-03-24T18:36:31.242Z,18.80
2023-03-24T18:39:02.642Z,18.90
2023-03-24T18:41:31.225Z,18.80
2023-03-24T18:43:59.816Z,18.60
2023-03-24T18:46:27.686Z,18.40
2023-03-24T18:48:55.956Z,18.30
2023-03-24T18:51:27.815Z,18.30
2023-03-24T18:53:56.233Z,18.20
2023-03-24T18:56:24.813Z,18.30
2023-03-24T18:58:52.942Z,18.30
2023-03-24T19:01:24.462Z,18.30
2023-03-24T19:03:53.097Z,18.50
2023-03-24T19:06:21.578Z,18.60
2023-03-24T19:08:53.501Z,18.70
2023-03-24T19:11:21.398Z,18.60
2023-03-24T19:13:51.081Z,18.60
2023-03-24T19:16:20.225Z,18.40
2023-03-24T19:18:48.744Z,18.20
2023-03-24T19:21:17.379Z,18.10
2023-03-24T19:23:47.043Z,18.00
2023-03-24T19:26:20.368Z,18.00
2023-03-24T19:28:48.421Z,18.10
2023-03-24T19:31:18.676Z,18.20
2023-03-24T19:33:47.549Z,18.00
2023-03-24T19:36:15.886Z,17.80
2023-03-24T19:38:44.382Z,17.80
2023-03-24T19:41:14.347Z,17.90
2023-03-24T19:43:42.642Z,17.70
2023-03-24T19:46:10.508Z,17.60
2023-03-24T19:48:38.432Z,17.70
2023-03-24T19:51:06.442Z,17.70
2023-03-24T19:53:34.290Z,17.70
2023-03-24T19:56:03.432Z,17.60
2023-03-24T19:58:31.906Z,17.60
2023-03-24T20:00:59.896Z,17.60
2023-03-24T20:03:29.033Z,17.70
2023-03-24T20:05:57.108Z,17.70
2023-03-24T20:08:26.266Z,17.80
2023-03-24T20:10:54.522Z,17.70
2023-03-24T20:13:24.164Z,17.60
2023-03-24T20:15:52.310Z,17.60
2023-03-24T20:18:20.605Z,17.60
2023-03-24T20:20:48.427Z,17.70
2023-03-24T20:23:16.356Z,17.60
2023-03-24T20:25:44.523Z,17.60
2023-03-24T20:28:13.363Z,17.60
2023-03-24T20:30:45.272Z,17.50
2023-03-24T20:33:13.861Z,17.10
2023-03-24T20:35:42.110Z,16.90
2023-03-24T20:38:09.940Z,16.80
2023-03-24T20:40:37.613Z,16.60
2023-03-24T20:43:05.509Z,16.50
2023-03-24T20:45:33.587Z,16.60
2023-03-24T20:48:01.838Z,16.40
2023-03-24T20:50:30.198Z,16.40
2023-03-24T20:52:57.909Z,16.50
2023-03-24T20:55:26.219Z,16.40
2023-03-24T20:57:54.014Z,16.40
2023-03-24T21:00:21.834Z,16.40
2023-03-24T21:02:49.687Z,16.70
2023-03-24T21:05:17.605Z,16.80
2023-03-24T21:07:45.725Z,16.70
2023-03-24T21:10:14.657Z,16.60
2023-03-24T21:12:52.261Z,16.40
2023-03-24T21:15:25.404Z,16.30
2023-03-24T21:17:53.605Z,16.30
2023-03-24T21:20:21.972Z,16.30
2023-03-24T21:22:56.110Z,16.40
2023-03-24T21:25:25.407Z,16.40
2023-03-24T21:27:53.846Z,16.30
2023-03-24T21:30:21.857Z,16.20
2023-03-24T21:32:51.628Z,16.20
2023-03-24T21:35:22.811Z,16.10
2023-03-24T21:37:53.706Z,16.10
2023-03-24T21:40:24.405Z,16.10
2023-03-24T21:42:54.089Z,16.20
2023-03-24T21:45:23.534Z,16.10
2023-03-24T21:47:55.233Z,16.10
2023-03-24T21:50:23.754Z,16.20
2023-03-24T21:52:53.674Z,16.30
2023-03-24T21:55:22.848Z,16.30
2023-03-24T21:57:52.056Z,16.50
2023-03-24T22:00:22.659Z,16.30
2023-03-24T22:02:53.495Z,16.30
2023-03-24T22:05:23.432Z,16.20
2023-03-24T22:07:52.849Z,16.40
2023-03-24T22:10:23.076Z,16.40
2023-03-24T22:12:52.670Z,16.40
2023-03-24T22:15:21.627Z,16.20
2023-03-24T22:17:50.601Z,16.30
2023-03-24T22:20:18.523Z,16.50
2023-03-24T22:22:46.727Z,16.50
2023-03-24T22:25:17.920Z,16.60
2023-03-24T22:27:50.649Z,16.70
2023-03-24T22:30:20.048Z,16.80
2023-03-24T22:32:47.855Z,16.70
2023-03-24T22:35:15.845Z,16.60
2023-03-24T22:37:43.627Z,16.50
2023-03-24T22:40:11.369Z,16.30
2023-03-24T22:42:39.166Z,16.40
2023-03-24T22:45:08.113Z,16.50
2023-03-24T22:47:38.345Z,16.50
2023-03-24T22:50:08.302Z,16.50
2023-03-24T22:52:36.186Z,16.50
2023-03-24T22:55:04.191Z,16.50
2023-03-24T22:57:32.070Z,16.50
2023-03-24T23:00:02.049Z,16.40
2023-03-24T23:02:30.870Z,16.30
2023-03-24T23:04:58.940Z,16.30
2023-03-24T23:07:28.370Z,16.20
2023-03-24T23:09:59.484Z,16.10
2023-03-24T23:12:27.485Z,16.10
2023-03-24T23:14:55.237Z,16.00
2023-03-24T23:17:25.706Z,16.00
2023-03-24T23:19:54.091Z,15.80
2023-03-24T23:22:21.996Z,15.70
2023-03-24T23:25:00.733Z,15.80
2023-03-24T23:27:37.491Z,15.70
2023-03-24T23:30:09.842Z,15.40
2023-03-24T23:32:38.842Z,15.40
2023-03-24T23:35:08.222Z,15.30
2023-03-24T23:37:37.000Z,15.40
2023-03-24T23:40:15.790Z,15.60
2023-03-24T23:42:47.936Z,15.70
2023-03-24T23:45:19.447Z,15.70
2023-03-24T23:47:50.412Z,15.60
2023-03-24T23:50:21.673Z,15.50
2023-03-24T23:52:49.395Z,15.50
2023-03-24T23:55:18.376Z,15.40
2023-03-24T23:57:46.893Z,15.40
